createdAt,value
2022-09-29T00:04:14.149Z,0.60
2022-09-29T00:09:17.124Z,0.50
2022-09-29T00:14:21.439Z,0.60
2022-09-29T00:19:25.489Z,0.63
2022-09-29T00:24:28.503Z,0.70
2022-09-29T00:29:32.767Z,0.70
2022-09-29T00:34:35.753Z,0.43
2022-09-29T00:39:38.918Z,0.50
2022-09-29T00:45:17.700Z,0.90
2022-09-29T00:50:27.044Z,0.50
2022-09-29T00:55:34.626Z,0.60
2022-09-29T01:00:39.272Z,0.70
2022-09-29T01:05:48.076Z,0.50
2022-09-29T01:10:53.472Z,0.60
2022-09-29T01:15:57.849Z,0.40
2022-09-29T01:21:13.046Z,0.60
2022-09-29T01:26:51.140Z,0.63
2022-09-29T01:31:59.025Z,0.57
2022-09-29T01:37:11.193Z,0.40
2022-09-29T01:42:19.391Z,0.43
2022-09-29T01:47:28.037Z,0.47
2022-09-29T01:52:34.459Z,0.70
2022-09-29T01:57:43.131Z,0.40
2022-09-29T02:02:51.958Z,0.43
2022-09-29T02:07:59.520Z,0.40
2022-09-29T02:13:07.264Z,0.30
2022-09-29T02:18:17.324Z,0.40
2022-09-29T02:23:20.281Z,0.40
2022-09-29T02:28:23.220Z,0.40
2022-09-29T02:33:27.967Z,0.40
2022-09-29T02:38:43.834Z,0.60
2022-09-29T02:44:04.112Z,0.40
2022-09-29T02:49:35.634Z,0.57
2022-09-29T02:54:50.837Z,0.43
2022-09-29T03:00:05.956Z,0.30
2022-09-29T03:05:12.735Z,0.37
2022-09-29T03:10:18.825Z,0.40
2022-09-29T03:15:22.399Z,0.47
2022-09-29T03:20:27.093Z,0.33
2022-09-29T03:25:30.031Z,0.27
2022-09-29T03:30:33.039Z,0.30
2022-09-29T03:35:44.231Z,0.47
2022-09-29T03:40:48.696Z,0.37
2022-09-29T03:45:52.762Z,0.40
2022-09-29T03:50:57.144Z,0.47
2022-09-29T03:56:00.153Z,0.43
2022-09-29T04:01:03.489Z,0.40
2022-09-29T04:06:08.376Z,0.30
2022-09-29T04:11:11.495Z,0.30
2022-09-29T04:16:14.494Z,0.70
2022-09-29T04:21:18.832Z,0.70
2022-09-29T04:26:21.964Z,0.63
2022-09-29T04:31:25.026Z,0.40
2022-09-29T04:36:29.425Z,0.30
2022-09-29T04:41:35.401Z,0.50
2022-09-29T04:46:38.511Z,0.20
2022-09-29T04:51:44.481Z,0.47
2022-09-29T04:56:49.488Z,0.40
2022-09-29T05:01:52.553Z,0.40
2022-09-29T05:06:56.920Z,0.53
2022-09-29T05:11:59.916Z,0.40
2022-09-29T05:17:02.929Z,0.40
2022-09-29T05:22:07.369Z,0.40
2022-09-29T05:27:10.402Z,0.40
2022-09-29T05:32:14.192Z,0.40
2022-09-29T05:37:19.063Z,0.30
2022-09-29T05:42:22.090Z,0.30
2022-09-29T05:47:25.214Z,0.80
2022-09-29T05:52:29.942Z,0.73
2022-09-29T05:57:33.245Z,0.87
2022-09-29T06:02:37.870Z,0.90
2022-09-29T06:07:46.337Z,0.37
2022-09-29T06:12:49.467Z,0.60
2022-09-29T06:17:56.674Z,0.73
2022-09-29T06:23:01.032Z,0.93
2022-09-29T06:28:04.959Z,0.80
2022-09-29T06:33:08.014Z,0.63
2022-09-29T06:38:12.786Z,1.33
2022-09-29T06:43:15.832Z,1.50
2022-09-29T06:48:18.845Z,1.10
2022-09-29T06:53:34.833Z,1.80
2022-09-29T06:58:40.733Z,1.53
2022-09-29T07:03:45.535Z,1.60
2022-09-29T07:08:54.704Z,1.30
2022-09-29T07:13:58.089Z,1.20
2022-09-29T07:19:01.083Z,0.80
2022-09-29T07:24:05.682Z,0.50
2022-09-29T07:29:12.833Z,0.87
2022-09-29T07:34:18.579Z,0.70
2022-09-29T07:39:24.068Z,0.70
2022-09-29T07:44:27.104Z,0.70
2022-09-29T07:49:30.513Z,0.80
2022-09-29T07:54:35.146Z,0.60
2022-09-29T07:59:40.896Z,0.83
2022-09-29T08:04:48.920Z,1.03
2022-09-29T08:09:53.255Z,0.70
2022-09-29T08:14:56.246Z,0.60
2022-09-29T08:19:59.166Z,0.80
2022-09-29T08:25:03.666Z,1.10
2022-09-29T08:30:07.867Z,0.70
2022-09-29T08:35:11.024Z,1.20
2022-09-29T08:40:15.914Z,1.20
2022-09-29T08:45:26.425Z,1.17
2022-09-29T08:50:35.306Z,1.13
2022-09-29T08:55:46.673Z,1.10
2022-09-29T09:01:03.127Z,1.00
2022-09-29T09:06:13.905Z,1.20
2022-09-29T09:11:34.029Z,1.00
2022-09-29T09:16:47.904Z,1.10
2022-09-29T09:21:59.192Z,1.40
2022-09-29T09:27:16.117Z,1.10
2022-09-29T09:32:23.960Z,1.00
2022-09-29T09:37:32.724Z,1.20
2022-09-29T09:42:40.133Z,1.27
2022-09-29T09:47:49.323Z,1.43
2022-09-29T09:52:54.208Z,1.50
2022-09-29T09:58:10.598Z,1.70
2022-09-29T10:03:14.440Z,1.20
2022-09-29T10:08:24.453Z,1.70
2022-09-29T10:13:30.486Z,1.40
2022-09-29T10:18:40.067Z,1.53
2022-09-29T10:23:52.652Z,1.37
2022-09-29T10:28:59.633Z,1.60
2022-09-29T10:34:15.042Z,1.80
2022-09-29T10:39:33.216Z,1.37
2022-09-29T10:44:41.012Z,1.60
2022-09-29T10:49:44.013Z,1.77
2022-09-29T10:54:55.752Z,1.73
2022-09-29T11:00:00.900Z,1.47
2022-09-29T11:05:06.735Z,1.27
2022-09-29T11:10:29.381Z,1.60
2022-09-29T11:15:41.701Z,1.37
2022-09-29T11:20:48.598Z,1.40
2022-09-29T11:26:17.235Z,1.57
2022-09-29T11:31:36.047Z,1.60
2022-09-29T11:36:45.168Z,1.70
2022-09-29T11:42:01.363Z,1.50
2022-09-29T11:47:13.875Z,1.40
2022-09-29T11:52:42.918Z,1.30
2022-09-29T11:58:01.940Z,1.30
2022-09-29T12:03:28.274Z,1.30
2022-09-29T12:08:44.847Z,1.43
2022-09-29T12:13:54.725Z,1.63
2022-09-29T12:19:04.516Z,1.50
2022-09-29T12:24:14.355Z,1.63
2022-09-29T12:29:32.938Z,1.43
2022-09-29T12:34:43.737Z,1.50
2022-09-29T12:39:55.711Z,1.47
2022-09-29T12:45:10.595Z,0.93
2022-09-29T12:50:21.125Z,1.10
2022-09-29T12:55:30.514Z,1.33
2022-09-29T13:00:36.343Z,1.00
2022-09-29T13:06:06.796Z,0.87
2022-09-29T13:11:31.467Z,1.10
2022-09-29T13:16:52.662Z,0.80
2022-09-29T13:22:08.233Z,0.87
2022-09-29T13:27:31.433Z,1.00
2022-09-29T13:32:40.453Z,0.90
2022-09-29T13:37:49.465Z,1.10
2022-09-29T13:42:55.856Z,1.30
2022-09-29T13:48:01.851Z,0.90
2022-09-29T13:53:37.690Z,0.83
2022-09-29T13:59:00.889Z,1.00
2022-09-29T14:04:36.835Z,0.97
2022-09-29T14:09:46.584Z,0.73
2022-09-29T14:14:56.844Z,1.00
2022-09-29T14:20:07.264Z,0.73
2022-09-29T14:25:50.197Z,1.40
2022-09-29T14:30:55.607Z,1.20
2022-09-29T14:36:06.779Z,0.90
2022-09-29T14:41:25.838Z,0.90
2022-09-29T14:47:22.315Z,0.77
2022-09-29T14:52:37.375Z,1.00
2022-09-29T14:57:55.265Z,0.90
2022-09-29T15:03:05.192Z,0.73
2022-09-29T15:08:28.871Z,0.90
2022-09-29T15:13:33.136Z,0.90
2022-09-29T15:18:57.186Z,1.30
2022-09-29T15:24:18.595Z,1.00
2022-09-29T15:29:23.337Z,0.77
2022-09-29T15:34:26.749Z,1.10
2022-09-29T15:39:45.066Z,1.20
2022-09-29T15:44:57.551Z,1.00
2022-09-29T15:50:04.607Z,0.90
2022-09-29T15:55:13.010Z,1.00
2022-09-29T16:00:52.419Z,0.80
2022-09-29T16:06:18.151Z,0.80
2022-09-29T16:11:26.884Z,0.70
2022-09-29T16:16:36.790Z,0.77
2022-09-29T16:21:42.207Z,1.00
2022-09-29T16:26:46.881Z,1.47
2022-09-29T16:31:51.082Z,1.37
2022-09-29T16:36:57.163Z,1.00
2022-09-29T16:42:03.217Z,0.97
2022-09-29T16:47:15.820Z,1.10
2022-09-29T16:52:26.589Z,0.70
2022-09-29T16:57:31.350Z,0.70
2022-09-29T17:02:35.138Z,0.70
2022-09-29T17:07:42.536Z,0.60
2022-09-29T17:12:45.516Z,0.67
2022-09-29T17:17:51.030Z,0.73
2022-09-29T17:22:55.977Z,0.80
2022-09-29T17:28:15.057Z,1.07
2022-09-29T17:33:19.540Z,1.10
2022-09-29T17:38:24.405Z,0.73
2022-09-29T17:43:35.020Z,1.10
2022-09-29T17:48:38.375Z,0.67
2022-09-29T17:53:43.799Z,0.83
2022-09-29T17:58:46.756Z,1.00
2022-09-29T18:03:50.382Z,1.33
2022-09-29T18:08:56.474Z,1.10
2022-09-29T18:13:59.795Z,1.20
2022-09-29T18:19:02.988Z,1.07
2022-09-29T18:24:10.037Z,1.13
2022-09-29T18:29:17.519Z,1.00
2022-09-29T18:34:22.225Z,0.90
2022-09-29T18:39:26.616Z,0.80
2022-09-29T18:44:33.602Z,1.10
2022-09-29T18:49:36.842Z,1.00
2022-09-29T18:54:41.132Z,1.00
2022-09-29T18:59:44.085Z,0.80
2022-09-29T19:04:51.834Z,0.67
2022-09-29T19:09:58.040Z,0.73
2022-09-29T19:15:01.266Z,0.90
2022-09-29T19:20:04.743Z,0.87
2022-09-29T19:25:13.253Z,0.97
2022-09-29T19:30:19.399Z,1.00
2022-09-29T19:35:24.727Z,0.97
2022-09-29T19:40:32.127Z,0.70
2022-09-29T19:45:38.037Z,0.90
2022-09-29T19:50:58.303Z,0.90
2022-09-29T19:56:02.773Z,1.20
2022-09-29T20:01:06.632Z,1.03
2022-09-29T20:06:10.201Z,1.30
2022-09-29T20:11:14.719Z,1.20
2022-09-29T20:16:17.750Z,1.70
2022-09-29T20:21:21.432Z,1.70
2022-09-29T20:26:26.223Z,1.30
2022-09-29T20:31:31.230Z,1.20
2022-09-29T20:36:35.122Z,1.30
2022-09-29T20:41:39.960Z,1.80
2022-09-29T20:46:43.798Z,1.50
2022-09-29T20:51:46.878Z,1.60
2022-09-29T20:56:52.045Z,1.70
2022-09-29T21:01:55.737Z,1.40
2022-09-29T21:06:58.801Z,1.30
2022-09-29T21:12:03.392Z,1.30
2022-09-29T21:17:06.283Z,0.93
2022-09-29T21:22:09.404Z,1.10
2022-09-29T21:27:13.692Z,1.07
2022-09-29T21:32:17.444Z,1.47
2022-09-29T21:37:20.528Z,1.23
2022-09-29T21:42:24.870Z,1.30
2022-09-29T21:47:47.768Z,1.20
2022-09-29T21:52:50.692Z,1.30
2022-09-29T21:57:55.242Z,0.90
2022-09-29T22:02:58.152Z,1.27
2022-09-29T22:08:01.276Z,1.10
2022-09-29T22:13:05.684Z,1.20
2022-09-29T22:18:08.705Z,1.30
2022-09-29T22:23:11.645Z,1.30
2022-09-29T22:28:16.174Z,1.33
2022-09-29T22:33:20.358Z,1.57
2022-09-29T22:38:23.401Z,1.50
2022-09-29T22:43:27.677Z,1.20
2022-09-29T22:48:30.594Z,1.30
2022-09-29T22:53:33.657Z,1.20
2022-09-29T22:58:37.913Z,1.10
2022-09-29T23:03:41.877Z,1.07
2022-09-29T23:08:45.116Z,1.10
2022-09-29T23:13:49.660Z,1.40
2022-09-29T23:18:55.025Z,1.50
2022-09-29T23:24:00.362Z,2.20
2022-09-29T23:29:04.842Z,1.60
2022-09-29T23:34:07.764Z,1.40
2022-09-29T23:39:13.485Z,1.40
2022-09-29T23:44:19.769Z,1.40
2022-09-29T23:49:24.495Z,1.00
2022-09-29T23:54:29.275Z,1.40
2022-09-29T23:59:33.707Z,1.40
